createdAt,value
2018-09-21T00:01:02.728Z,15.46
2018-09-21T00:05:03.370Z,14.86
2018-09-21T00:11:04.088Z,16.86
2018-09-21T00:15:04.880Z,15.56
2018-09-21T00:17:05.628Z,14.86
2018-09-21T00:21:06.254Z,14.37
2018-09-21T00:27:07.033Z,15.43
2018-09-21T00:31:07.880Z,14.54
2018-09-21T00:37:08.620Z,15.5
2018-09-21T00:41:09.348Z,15.16
2018-09-21T00:43:10.101Z,16.73
2018-09-21T00:47:10.806Z,15.41
2018-09-21T00:53:11.503Z,16.25
2018-09-21T00:57:12.219Z,14.95
2018-09-21T01:03:13.083Z,15.03
2018-09-21T01:09:13.793Z,15.85
2018-09-21T01:13:14.606Z,15.81
2018-09-21T01:19:17.253Z,16.3
2018-09-21T01:23:16.137Z,15.56
2018-09-21T01:29:16.830Z,16.29
2018-09-21T01:35:17.685Z,15.64
2018-09-21T01:39:18.363Z,14.77
2018-09-21T01:45:19.683Z,15.93
2018-09-21T01:49:20.480Z,15.32
2018-09-21T01:55:21.120Z,15
2018-09-21T02:01:21.892Z,14.68
2018-09-21T02:05:22.586Z,14.08
2018-09-21T02:11:23.461Z,15.57
2018-09-21T02:15:24.681Z,14.78
2018-09-21T02:21:25.532Z,14.78
2018-09-21T02:27:26.264Z,15.84
2018-09-21T02:31:27.024Z,15
2018-09-21T02:37:27.882Z,14.96
2018-09-21T02:41:28.724Z,15.12
2018-09-21T02:47:29.360Z,15.27
2018-09-21T02:53:30.052Z,14.62
2018-09-21T02:57:30.775Z,14.31
2018-09-21T03:03:31.493Z,14.08
2018-09-21T03:07:32.430Z,14.19
2018-09-21T03:09:32.976Z,14.84
2018-09-21T03:13:33.759Z,14.03
2018-09-21T03:19:34.611Z,14.14
2018-09-21T03:23:35.388Z,14.23
2018-09-21T03:29:36.237Z,14.13
2018-09-21T03:33:37.016Z,13.91
2018-09-21T03:35:39.327Z,14.29
2018-09-21T03:39:40.069Z,14.57
2018-09-21T03:45:40.843Z,14.56
2018-09-21T03:49:41.548Z,14.3
2018-09-21T03:55:42.311Z,15.79
2018-09-21T03:59:43.069Z,14.79
2018-09-21T04:01:43.743Z,14.9
2018-09-21T04:05:44.386Z,14.34
2018-09-21T04:11:45.106Z,14.9
2018-09-21T04:15:45.840Z,14.53
2018-09-21T04:21:46.642Z,15.42
2018-09-21T04:25:47.415Z,14.46
2018-09-21T04:27:48.049Z,14.95
2018-09-21T04:31:48.811Z,13.95
2018-09-21T04:37:49.674Z,16.5
2018-09-21T04:41:50.495Z,15.78
2018-09-21T04:47:51.294Z,17.42
2018-09-21T04:51:51.982Z,16.16
2018-09-21T04:53:52.763Z,16.5
2018-09-21T04:57:53.718Z,16.3
2018-09-21T05:03:54.437Z,19.64
2018-09-21T05:07:55.320Z,18.7
2018-09-21T05:13:56.106Z,18.9
2018-09-21T05:17:56.851Z,19.27
2018-09-21T05:19:57.692Z,18.02
2018-09-21T05:23:58.550Z,17.9
2018-09-21T05:29:59.337Z,17.87
2018-09-21T05:34:00.073Z,18.9
2018-09-21T05:40:00.909Z,20.92
2018-09-21T05:44:01.772Z,19.02
2018-09-21T05:46:02.899Z,17.49
2018-09-21T05:50:03.321Z,19
2018-09-21T05:56:04.125Z,22.12
2018-09-21T06:00:05.470Z,19.35
2018-09-21T06:06:09.529Z,19.22
2018-09-21T06:10:10.409Z,18.6
2018-09-21T06:12:11.411Z,23.37
2018-09-21T06:16:07.977Z,36.45
2018-09-21T06:22:12.690Z,19.73
2018-09-21T06:26:13.458Z,19.01
2018-09-21T06:32:10.109Z,21.1
2018-09-21T06:36:10.919Z,20.37
2018-09-21T06:38:15.787Z,21.32
2018-09-21T06:42:14.412Z,20.36
2018-09-21T06:48:17.001Z,20.5
2018-09-21T06:52:13.694Z,19.88
2018-09-21T06:58:14.424Z,18.16
2018-09-21T07:04:19.282Z,18.37
2018-09-21T07:08:15.858Z,18.42
2018-09-21T07:14:16.659Z,20.59
2018-09-21T07:18:17.562Z,20.63
2018-09-21T07:24:19.304Z,20.52
2018-09-21T07:30:19.483Z,20.68
2018-09-21T07:34:20.230Z,20.21
2018-09-21T07:40:20.950Z,20.72
2018-09-21T07:44:26.102Z,20.34
2018-09-21T07:50:22.931Z,20.29
2018-09-21T07:56:26.223Z,19.67
2018-09-21T08:00:27.748Z,19.18
2018-09-21T08:06:29.163Z,19.34
2018-09-21T08:10:25.893Z,19.55
2018-09-21T08:16:31.414Z,17.48
2018-09-21T08:22:29.180Z,18.01
2018-09-21T08:26:31.395Z,16.63
2018-09-21T08:32:29.206Z,16.09
2018-09-21T08:36:30.434Z,16.17
2018-09-21T08:42:33.419Z,15.01
2018-09-21T08:48:32.498Z,16.98
2018-09-21T08:52:35.626Z,16.85
2018-09-21T08:58:37.757Z,16.3
2018-09-21T09:02:34.792Z,16.22
2018-09-21T09:08:39.519Z,15.16
2018-09-21T09:14:37.215Z,14.68
2018-09-21T09:18:39.490Z,14.65
2018-09-21T09:24:38.881Z,14.9
2018-09-21T09:28:41.482Z,14.21
2018-09-21T09:30:46.790Z,13.52
2018-09-21T09:34:44.454Z,13.89
2018-09-21T09:40:44.408Z,12.84
2018-09-21T09:44:49.110Z,13.36
2018-09-21T09:50:46.403Z,13.37
2018-09-21T09:54:50.583Z,13.23
2018-09-21T09:56:49.253Z,13.64
2018-09-21T10:00:48.188Z,13.49
2018-09-21T10:06:51.514Z,12.77
2018-09-21T10:10:52.310Z,12.73
2018-09-21T10:16:50.317Z,12.3
2018-09-21T10:20:54.027Z,12.53
2018-09-21T10:22:55.921Z,11.63
2018-09-21T10:26:52.582Z,12.17
2018-09-21T10:32:57.391Z,12.13
2018-09-21T10:36:55.926Z,11.67
2018-09-21T10:42:55.455Z,11.58
2018-09-21T10:47:00.327Z,11.43
2018-09-21T10:48:57.015Z,10.86
2018-09-21T10:52:57.824Z,10.54
2018-09-21T10:58:59.247Z,9.49
2018-09-21T11:03:01.947Z,9.23
2018-09-21T11:09:03.390Z,8.88
2018-09-21T11:13:02.873Z,8.9
2018-09-21T11:15:02.977Z,8.96
2018-09-21T11:19:07.256Z,8.85
2018-09-21T11:25:05.574Z,9.32
2018-09-21T11:29:06.753Z,8.62
2018-09-21T11:35:07.978Z,8.78
2018-09-21T11:39:06.404Z,9.38
2018-09-21T11:41:09.879Z,10.53
2018-09-21T11:45:10.307Z,9.66
2018-09-21T11:51:11.103Z,9.82
2018-09-21T11:55:09.748Z,9.47
2018-09-21T12:01:15.269Z,9.11
2018-09-21T12:05:13.874Z,9.27
2018-09-21T12:07:11.944Z,9.16
2018-09-21T12:11:12.795Z,8.76
2018-09-21T12:17:13.512Z,7.87
2018-09-21T12:21:14.381Z,8.02
2018-09-21T12:27:17.953Z,8.51
2018-09-21T12:33:18.687Z,8.37
2018-09-21T12:37:16.655Z,8.57
2018-09-21T12:43:21.374Z,9.07
2018-09-21T12:47:22.129Z,8.56
2018-09-21T12:53:20.949Z,8.62
2018-09-21T12:59:20.103Z,9.12
2018-09-21T13:03:22.801Z,8.8
2018-09-21T13:09:23.584Z,9.2
2018-09-21T13:13:24.332Z,8.94
2018-09-21T13:19:27.395Z,9.29
2018-09-21T13:25:24.059Z,8.15
2018-09-21T13:29:25.309Z,8.77
2018-09-21T13:35:28.357Z,7.83
2018-09-21T13:39:27.974Z,7.89
2018-09-21T13:45:27.807Z,8.47
2018-09-21T13:51:33.083Z,8.03
2018-09-21T13:55:30.063Z,8.39
2018-09-21T14:01:31.015Z,8.88
2018-09-21T14:05:35.923Z,9.07
2018-09-21T14:07:34.885Z,9.44
2018-09-21T14:11:35.514Z,8.99
2018-09-21T14:17:38.733Z,8.91
2018-09-21T14:21:35.818Z,8.53
2018-09-21T14:27:37.271Z,8.04
2018-09-21T14:31:41.208Z,8.42
2018-09-21T14:33:38.058Z,8.39
2018-09-21T14:37:38.718Z,8.3
2018-09-21T14:43:43.615Z,8.7
2018-09-21T14:47:40.362Z,8.26
2018-09-21T14:53:45.893Z,8.21
2018-09-21T14:57:45.870Z,7.81
2018-09-21T14:59:46.617Z,7.34
2018-09-21T15:03:43.245Z,7.35
2018-09-21T15:09:44.011Z,7.2
2018-09-21T15:13:48.804Z,7.11
2018-09-21T15:19:45.538Z,6.78
2018-09-21T15:23:50.411Z,6.57
2018-09-21T15:25:47.080Z,7.3
2018-09-21T15:29:47.818Z,7.02
2018-09-21T15:35:52.859Z,6.87
2018-09-21T15:39:53.643Z,7.06
2018-09-21T15:45:54.460Z,7.75
2018-09-21T15:49:55.164Z,7.26
2018-09-21T15:51:56.036Z,7.54
2018-09-21T15:55:56.936Z,7.8
2018-09-21T16:01:53.544Z,9.63
2018-09-21T16:05:58.482Z,9.5
2018-09-21T16:11:59.119Z,9.05
2018-09-21T16:17:59.753Z,9.66
2018-09-21T16:22:00.881Z,9.48
2018-09-21T16:27:57.605Z,10.12
2018-09-21T16:31:58.573Z,9.58
2018-09-21T16:38:03.249Z,10.21
2018-09-21T16:44:01.118Z,9.73
2018-09-21T16:48:06.047Z,9.44
2018-09-21T16:54:02.761Z,9.59
2018-09-21T16:58:03.707Z,9.71
2018-09-21T17:04:10.515Z,9.78
2018-09-21T17:10:11.139Z,9.52
2018-09-21T17:14:13.260Z,9.18
2018-09-21T17:20:10.115Z,9.36
2018-09-21T17:24:14.814Z,9.06
2018-09-21T17:30:15.956Z,9.16
2018-09-21T17:36:12.770Z,9.26
2018-09-21T17:40:13.666Z,9.35
2018-09-21T17:46:14.478Z,9.74
2018-09-21T17:50:19.530Z,9.76
2018-09-21T17:56:16.104Z,8.83
2018-09-21T18:02:16.831Z,9.13
2018-09-21T18:12:25.655Z,9.76
2018-09-21T18:12:29.515Z,9.3
2018-09-21T18:16:29.424Z,9.78
2018-09-21T18:22:27.322Z,9.38
2018-09-21T18:28:28.088Z,10.19
2018-09-21T18:32:28.919Z,10.32
2018-09-21T18:38:34.727Z,11.32
2018-09-21T18:42:31.474Z,10.54
2018-09-21T18:48:36.148Z,11.07
2018-09-21T18:54:36.973Z,11.41
2018-09-21T18:58:37.680Z,10.49
2018-09-21T19:04:34.387Z,11.62
2018-09-21T19:14:48.904Z,12
2018-09-21T19:14:49.277Z,10.79
2018-09-21T19:20:48.122Z,12.18
2018-09-21T19:24:53.404Z,11.64
2018-09-21T19:30:57.764Z,12.4
2018-09-21T19:34:58.712Z,12.12
2018-09-21T19:41:01.293Z,12.34
2018-09-21T19:45:02.740Z,12.07
2018-09-21T19:47:11.656Z,12.05
2018-09-21T19:51:08.506Z,12.15
2018-09-21T19:57:16.121Z,11.98
2018-09-21T20:01:18.026Z,11
2018-09-21T20:07:23.275Z,14.16
2018-09-21T20:11:24.124Z,13.06
2018-09-21T20:17:27.633Z,13.64
2018-09-21T20:23:30.444Z,12.63
2018-09-21T20:27:27.482Z,12.03
2018-09-21T20:33:34.252Z,12.24
2018-09-21T20:37:35.138Z,11.44
2018-09-21T20:43:35.911Z,11.91
2018-09-21T20:49:32.612Z,12.19
2018-09-21T20:53:37.488Z,12.7
2018-09-21T20:59:38.274Z,13.03
2018-09-21T21:03:35.013Z,12.35
2018-09-21T21:09:35.849Z,12.33
2018-09-21T21:15:36.549Z,12.51
2018-09-21T21:19:41.429Z,12.76
2018-09-21T21:25:42.107Z,14.13
2018-09-21T21:29:38.864Z,13.47
2018-09-21T21:35:39.685Z,12.63
2018-09-21T21:41:40.445Z,13.04
2018-09-21T21:45:45.164Z,13.41
2018-09-21T21:51:41.853Z,13.24
2018-09-21T21:55:42.563Z,13.42
2018-09-21T21:57:43.258Z,12.15
2018-09-21T22:01:43.947Z,13.05
2018-09-21T22:07:44.644Z,14.07
2018-09-21T22:11:45.329Z,13.78
2018-09-21T22:17:46.254Z,14.07
2018-09-21T22:21:47.180Z,13.58
2018-09-21T22:23:47.893Z,13.65
2018-09-21T22:27:48.635Z,12.99
2018-09-21T22:33:49.347Z,13.67
2018-09-21T22:37:50.106Z,13.56
2018-09-21T22:43:50.894Z,14.13
2018-09-21T22:47:51.768Z,13.25
2018-09-21T22:49:52.403Z,13.55
2018-09-21T22:53:53.240Z,13.04
2018-09-21T22:59:54.032Z,13.37
2018-09-21T23:03:54.666Z,12.38
2018-09-21T23:09:55.380Z,12.95
2018-09-21T23:13:56.115Z,12.48
2018-09-21T23:15:56.836Z,13.78
2018-09-21T23:19:57.619Z,13.64
2018-09-21T23:25:58.472Z,13.2
2018-09-21T23:29:59.153Z,13.22
2018-09-21T23:35:59.858Z,14.82
2018-09-21T23:40:00.765Z,14.08
2018-09-21T23:42:01.469Z,14.11
2018-09-21T23:46:02.189Z,13.4
2018-09-21T23:52:02.963Z,13.71
2018-09-21T23:56:03.668Z,13.8
